sensor_id;sensor_type;location;lat;lon;timestamp;P1;durP1;ratioP1;P2;durP2;ratioP2
39524;SDS011;25203;50.754;6.978;2024-02-04T00:01:47;0.73;;;0.65;;
39524;SDS011;25203;50.754;6.978;2024-02-04T00:03:48;2.05;;;0.60;;
39524;SDS011;25203;50.754;6.978;2024-02-04T00:05:49;0.68;;;0.60;;
39524;SDS011;25203;50.754;6.978;2024-02-04T00:07:50;0.73;;;0.60;;
39524;SDS011;25203;50.754;6.978;2024-02-04T00:09:51;1.85;;;0.60;;
39524;SDS011;25203;50.754;6.978;2024-02-04T00:11:52;0.57;;;0.57;;
39524;SDS011;25203;50.754;6.978;2024-02-04T00:13:52;0.88;;;0.60;;
39524;SDS011;25203;50.754;6.978;2024-02-04T00:15:53;0.43;;;0.43;;
39524;SDS011;25203;50.754;6.978;2024-02-04T00:17:54;0.30;;;0.30;;
39524;SDS011;25203;50.754;6.978;2024-02-04T00:19:55;0.65;;;0.50;;
39524;SDS011;25203;50.754;6.978;2024-02-04T00:21:56;1.90;;;0.50;;
39524;SDS011;25203;50.754;6.978;2024-02-04T00:23:57;2.00;;;0.50;;
39524;SDS011;25203;50.754;6.978;2024-02-04T00:25:57;1.77;;;0.30;;
39524;SDS011;25203;50.754;6.978;2024-02-04T00:27:58;0.52;;;0.32;;
39524;SDS011;25203;50.754;6.978;2024-02-04T00:29:59;0.38;;;0.38;;
39524;SDS011;25203;50.754;6.978;2024-02-04T00:32:00;0.57;;;0.40;;
39524;SDS011;25203;50.754;6.978;2024-02-04T00:34:00;0.32;;;0.32;;
39524;SDS011;25203;50.754;6.978;2024-02-04T00:36:01;1.58;;;0.30;;
39524;SDS011;25203;50.754;6.978;2024-02-04T00:38:02;0.52;;;0.30;;
39524;SDS011;25203;50.754;6.978;2024-02-04T00:40:03;0.28;;;0.28;;
39524;SDS011;25203;50.754;6.978;2024-02-04T00:42:04;0.80;;;0.30;;
39524;SDS011;25203;50.754;6.978;2024-02-04T00:44:05;2.50;;;0.50;;
39524;SDS011;25203;50.754;6.978;2024-02-04T00:46:05;0.43;;;0.32;;
39524;SDS011;25203;50.754;6.978;2024-02-04T00:48:07;1.98;;;0.50;;
39524;SDS011;25203;50.754;6.978;2024-02-04T00:50:08;0.47;;;0.30;;
39524;SDS011;25203;50.754;6.978;2024-02-04T00:52:09;0.52;;;0.52;;
39524;SDS011;25203;50.754;6.978;2024-02-04T00:54:09;0.40;;;0.30;;
39524;SDS011;25203;50.754;6.978;2024-02-04T00:56:10;1.38;;;0.60;;
39524;SDS011;25203;50.754;6.978;2024-02-04T00:58:11;1.58;;;0.52;;
39524;SDS011;25203;50.754;6.978;2024-02-04T01:00:12;1.00;;;0.50;;
39524;SDS011;25203;50.754;6.978;2024-02-04T01:02:13;0.30;;;0.30;;
39524;SDS011;25203;50.754;6.978;2024-02-04T01:04:13;0.65;;;0.40;;
39524;SDS011;25203;50.754;6.978;2024-02-04T01:06:14;0.40;;;0.40;;
39524;SDS011;25203;50.754;6.978;2024-02-04T01:08:14;1.33;;;0.50;;
39524;SDS011;25203;50.754;6.978;2024-02-04T01:10:15;2.72;;;0.40;;
39524;SDS011;25203;50.754;6.978;2024-02-04T01:12:15;0.30;;;0.30;;
39524;SDS011;25203;50.754;6.978;2024-02-04T01:14:16;0.28;;;0.28;;
39524;SDS011;25203;50.754;6.978;2024-02-04T01:16:17;0.25;;;0.25;;
39524;SDS011;25203;50.754;6.978;2024-02-04T01:18:17;1.52;;;0.30;;
39524;SDS011;25203;50.754;6.978;2024-02-04T01:20:18;0.55;;;0.38;;
39524;SDS011;25203;50.754;6.978;2024-02-04T01:22:19;0.30;;;0.30;;
39524;SDS011;25203;50.754;6.978;2024-02-04T01:24:19;0.93;;;0.30;;
39524;SDS011;25203;50.754;6.978;2024-02-04T01:26:20;1.33;;;0.45;;
39524;SDS011;25203;50.754;6.978;2024-02-04T01:28:20;0.40;;;0.40;;
39524;SDS011;25203;50.754;6.978;2024-02-04T01:30:21;0.32;;;0.28;;
39524;SDS011;25203;50.754;6.978;2024-02-04T01:32:22;1.45;;;0.35;;
39524;SDS011;25203;50.754;6.978;2024-02-04T01:34:22;0.57;;;0.20;;
39524;SDS011;25203;50.754;6.978;2024-02-04T01:36:23;0.82;;;0.30;;
39524;SDS011;25203;50.754;6.978;2024-02-04T01:38:23;0.40;;;0.40;;
39524;SDS011;25203;50.754;6.978;2024-02-04T01:40:24;1.55;;;0.15;;
39524;SDS011;25203;50.754;6.978;2024-02-04T01:42:24;0.45;;;0.20;;
39524;SDS011;25203;50.754;6.978;2024-02-04T01:44:25;0.20;;;0.20;;
39524;SDS011;25203;50.754;6.978;2024-02-04T01:46:26;0.25;;;0.25;;
39524;SDS011;25203;50.754;6.978;2024-02-04T01:48:26;3.08;;;0.40;;
39524;SDS011;25203;50.754;6.978;2024-02-04T01:50:27;2.17;;;0.20;;
39524;SDS011;25203;50.754;6.978;2024-02-04T01:52:28;1.08;;;0.20;;
39524;SDS011;25203;50.754;6.978;2024-02-04T01:54:31;0.17;;;0.17;;
39524;SDS011;25203;50.754;6.978;2024-02-04T01:56:32;0.40;;;0.20;;
39524;SDS011;25203;50.754;6.978;2024-02-04T01:58:33;0.55;;;0.30;;
39524;SDS011;25203;50.754;6.978;2024-02-04T02:00:34;0.10;;;0.10;;
39524;SDS011;25203;50.754;6.978;2024-02-04T02:02:38;1.13;;;0.30;;
39524;SDS011;25203;50.754;6.978;2024-02-04T02:04:41;0.40;;;0.20;;
39524;SDS011;25203;50.754;6.978;2024-02-04T02:06:43;0.35;;;0.10;;
39524;SDS011;25203;50.754;6.978;2024-02-04T02:08:45;0.10;;;0.10;;
39524;SDS011;25203;50.754;6.978;2024-02-04T02:10:47;0.38;;;0.20;;
39524;SDS011;25203;50.754;6.978;2024-02-04T02:12:50;0.20;;;0.20;;
39524;SDS011;25203;50.754;6.978;2024-02-04T02:15:14;0.17;;;0.17;;
39524;SDS011;25203;50.754;6.978;2024-02-04T02:17:19;0.20;;;0.20;;
39524;SDS011;25203;50.754;6.978;2024-02-04T02:19:43;0.40;;;0.20;;
39524;SDS011;25203;50.754;6.978;2024-02-04T02:22:02;0.47;;;0.47;;
39524;SDS011;25203;50.754;6.978;2024-02-04T02:24:11;0.25;;;0.25;;
39524;SDS011;25203;50.754;6.978;2024-02-04T02:26:12;0.10;;;0.10;;
39524;SDS011;25203;50.754;6.978;2024-02-04T02:28:12;0.10;;;0.10;;
39524;SDS011;25203;50.754;6.978;2024-02-04T02:30:13;0.90;;;0.20;;
39524;SDS011;25203;50.754;6.978;2024-02-04T02:32:14;0.20;;;0.17;;
39524;SDS011;25203;50.754;6.978;2024-02-04T02:34:15;0.20;;;0.13;;
39524;SDS011;25203;50.754;6.978;2024-02-04T02:36:17;0.25;;;0.17;;
39524;SDS011;25203;50.754;6.978;2024-02-04T02:38:25;0.20;;;0.20;;
39524;SDS011;25203;50.754;6.978;2024-02-04T02:42:39;0.20;;;0.20;;
39524;SDS011;25203;50.754;6.978;2024-02-04T02:44:43;0.20;;;0.20;;
39524;SDS011;25203;50.754;6.978;2024-02-04T02:46:47;0.35;;;0.10;;
39524;SDS011;25203;50.754;6.978;2024-02-04T02:48:49;0.40;;;0.20;;
39524;SDS011;25203;50.754;6.978;2024-02-04T02:50:49;0.68;;;0.30;;
39524;SDS011;25203;50.754;6.978;2024-02-04T02:52:50;0.17;;;0.17;;
39524;SDS011;25203;50.754;6.978;2024-02-04T02:54:51;0.20;;;0.20;;
39524;SDS011;25203;50.754;6.978;2024-02-04T02:56:51;0.20;;;0.20;;
39524;SDS011;25203;50.754;6.978;2024-02-04T02:58:52;1.58;;;0.28;;
39524;SDS011;25203;50.754;6.978;2024-02-04T03:00:52;0.55;;;0.20;;
39524;SDS011;25203;50.754;6.978;2024-02-04T03:02:53;1.00;;;0.10;;
39524;SDS011;25203;50.754;6.978;2024-02-04T03:04:53;0.93;;;0.20;;
39524;SDS011;25203;50.754;6.978;2024-02-04T03:06:54;0.20;;;0.20;;
39524;SDS011;25203;50.754;6.978;2024-02-04T03:08:55;0.63;;;0.40;;
39524;SDS011;25203;50.754;6.978;2024-02-04T03:10:55;0.32;;;0.30;;
39524;SDS011;25203;50.754;6.978;2024-02-04T03:12:56;0.52;;;0.30;;
39524;SDS011;25203;50.754;6.978;2024-02-04T03:14:56;0.45;;;0.30;;
39524;SDS011;25203;50.754;6.978;2024-02-04T03:16:57;1.15;;;0.50;;
39524;SDS011;25203;50.754;6.978;2024-02-04T03:18:58;0.65;;;0.20;;
39524;SDS011;25203;50.754;6.978;2024-02-04T03:20:58;1.92;;;0.20;;
39524;SDS011;25203;50.754;6.978;2024-02-04T03:22:59;0.90;;;0.35;;
39524;SDS011;25203;50.754;6.978;2024-02-04T03:25:00;1.55;;;0.47;;
39524;SDS011;25203;50.754;6.978;2024-02-04T03:27:00;0.20;;;0.20;;
39524;SDS011;25203;50.754;6.978;2024-02-04T03:29:01;0.30;;;0.30;;
39524;SDS011;25203;50.754;6.978;2024-02-04T03:31:04;2.45;;;0.50;;
39524;SDS011;25203;50.754;6.978;2024-02-04T03:33:05;0.20;;;0.20;;
39524;SDS011;25203;50.754;6.978;2024-02-04T03:35:05;0.47;;;0.40;;
39524;SDS011;25203;50.754;6.978;2024-02-04T03:37:06;1.48;;;0.55;;
39524;SDS011;25203;50.754;6.978;2024-02-04T03:39:07;2.25;;;0.50;;
39524;SDS011;25203;50.754;6.978;2024-02-04T03:41:07;0.57;;;0.38;;
39524;SDS011;25203;50.754;6.978;2024-02-04T03:43:08;0.75;;;0.45;;
39524;SDS011;25203;50.754;6.978;2024-02-04T03:45:09;1.02;;;0.40;;
39524;SDS011;25203;50.754;6.978;2024-02-04T03:47:10;2.08;;;0.40;;
39524;SDS011;25203;50.754;6.978;2024-02-04T03:49:10;1.77;;;0.40;;
39524;SDS011;25203;50.754;6.978;2024-02-04T03:51:20;0.63;;;0.40;;
39524;SDS011;25203;50.754;6.978;2024-02-04T03:53:20;1.80;;;0.40;;
39524;SDS011;25203;50.754;6.978;2024-02-04T03:55:23;1.92;;;0.60;;
39524;SDS011;25203;50.754;6.978;2024-02-04T03:57:23;0.77;;;0.50;;
39524;SDS011;25203;50.754;6.978;2024-02-04T03:59:24;1.00;;;0.40;;
39524;SDS011;25203;50.754;6.978;2024-02-04T04:01:25;2.70;;;0.57;;
39524;SDS011;25203;50.754;6.978;2024-02-04T04:03:25;1.08;;;0.55;;
39524;SDS011;25203;50.754;6.978;2024-02-04T04:05:26;0.68;;;0.50;;
39524;SDS011;25203;50.754;6.978;2024-02-04T04:07:27;0.55;;;0.55;;
39524;SDS011;25203;50.754;6.978;2024-02-04T04:09:27;0.88;;;0.70;;
39524;SDS011;25203;50.754;6.978;2024-02-04T04:11:28;0.63;;;0.60;;
39524;SDS011;25203;50.754;6.978;2024-02-04T04:13:29;0.95;;;0.88;;
39524;SDS011;25203;50.754;6.978;2024-02-04T04:15:30;0.70;;;0.65;;
39524;SDS011;25203;50.754;6.978;2024-02-04T04:17:30;0.80;;;0.65;;
39524;SDS011;25203;50.754;6.978;2024-02-04T04:19:31;8.25;;;1.48;;
39524;SDS011;25203;50.754;6.978;2024-02-04T04:21:33;1.13;;;0.85;;
39524;SDS011;25203;50.754;6.978;2024-02-04T04:23:33;2.13;;;1.10;;
39524;SDS011;25203;50.754;6.978;2024-02-04T04:25:34;1.55;;;0.90;;
39524;SDS011;25203;50.754;6.978;2024-02-04T04:27:34;2.13;;;0.80;;
39524;SDS011;25203;50.754;6.978;2024-02-04T04:29:35;0.68;;;0.68;;
39524;SDS011;25203;50.754;6.978;2024-02-04T04:31:36;1.10;;;1.00;;
39524;SDS011;25203;50.754;6.978;2024-02-04T04:33:36;0.85;;;0.85;;
39524;SDS011;25203;50.754;6.978;2024-02-04T04:35:37;4.10;;;0.73;;
39524;SDS011;25203;50.754;6.978;2024-02-04T04:37:38;0.85;;;0.85;;
39524;SDS011;25203;50.754;6.978;2024-02-04T04:39:39;3.38;;;0.93;;
39524;SDS011;25203;50.754;6.978;2024-02-04T04:41:39;0.73;;;0.73;;
39524;SDS011;25203;50.754;6.978;2024-02-04T04:43:42;1.23;;;1.13;;
39524;SDS011;25203;50.754;6.978;2024-02-04T04:45:42;1.00;;;0.90;;
39524;SDS011;25203;50.754;6.978;2024-02-04T04:47:43;1.80;;;0.90;;
39524;SDS011;25203;50.754;6.978;2024-02-04T04:49:44;1.20;;;1.00;;
39524;SDS011;25203;50.754;6.978;2024-02-04T04:51:45;1.25;;;1.00;;
39524;SDS011;25203;50.754;6.978;2024-02-04T04:53:48;1.52;;;1.00;;
39524;SDS011;25203;50.754;6.978;2024-02-04T04:55:49;0.88;;;0.88;;
39524;SDS011;25203;50.754;6.978;2024-02-04T04:57:49;2.20;;;1.40;;
39524;SDS011;25203;50.754;6.978;2024-02-04T04:59:52;2.47;;;1.40;;
39524;SDS011;25203;50.754;6.978;2024-02-04T05:01:52;1.38;;;1.20;;
39524;SDS011;25203;50.754;6.978;2024-02-04T05:03:53;2.40;;;1.88;;
39524;SDS011;25203;50.754;6.978;2024-02-04T05:05:53;1.65;;;1.55;;
39524;SDS011;25203;50.754;6.978;2024-02-04T05:07:54;2.22;;;2.03;;
39524;SDS011;25203;50.754;6.978;2024-02-04T05:09:55;2.30;;;2.00;;
39524;SDS011;25203;50.754;6.978;2024-02-04T05:11:55;3.08;;;2.47;;
39524;SDS011;25203;50.754;6.978;2024-02-04T05:13:56;3.00;;;2.70;;
39524;SDS011;25203;50.754;6.978;2024-02-04T05:15:56;3.10;;;2.63;;
39524;SDS011;25203;50.754;6.978;2024-02-04T05:17:57;4.72;;;2.85;;
39524;SDS011;25203;50.754;6.978;2024-02-04T05:19:57;3.40;;;2.85;;
39524;SDS011;25203;50.754;6.978;2024-02-04T05:21:58;5.70;;;3.20;;
39524;SDS011;25203;50.754;6.978;2024-02-04T05:23:59;3.50;;;3.13;;
39524;SDS011;25203;50.754;6.978;2024-02-04T05:26:02;3.28;;;2.70;;
39524;SDS011;25203;50.754;6.978;2024-02-04T05:28:04;3.38;;;2.80;;
39524;SDS011;25203;50.754;6.978;2024-02-04T05:30:06;5.10;;;2.30;;
39524;SDS011;25203;50.754;6.978;2024-02-04T05:32:07;4.65;;;2.70;;
39524;SDS011;25203;50.754;6.978;2024-02-04T05:34:08;2.80;;;2.30;;
39524;SDS011;25203;50.754;6.978;2024-02-04T05:36:09;3.63;;;2.40;;
39524;SDS011;25203;50.754;6.978;2024-02-04T05:38:10;3.95;;;2.70;;
39524;SDS011;25203;50.754;6.978;2024-02-04T05:40:11;4.50;;;2.95;;
39524;SDS011;25203;50.754;6.978;2024-02-04T05:42:12;3.22;;;2.65;;
39524;SDS011;25203;50.754;6.978;2024-02-04T05:44:13;5.45;;;3.10;;
39524;SDS011;25203;50.754;6.978;2024-02-04T05:46:14;3.50;;;3.10;;
39524;SDS011;25203;50.754;6.978;2024-02-04T05:48:15;3.38;;;3.00;;
39524;SDS011;25203;50.754;6.978;2024-02-04T05:50:15;4.07;;;3.03;;
39524;SDS011;25203;50.754;6.978;2024-02-04T05:52:16;4.25;;;3.35;;
39524;SDS011;25203;50.754;6.978;2024-02-04T05:54:16;5.20;;;3.15;;
39524;SDS011;25203;50.754;6.978;2024-02-04T05:56:17;4.50;;;3.38;;
39524;SDS011;25203;50.754;6.978;2024-02-04T05:58:17;6.47;;;3.45;;
39524;SDS011;25203;50.754;6.978;2024-02-04T06:00:18;6.47;;;3.60;;
39524;SDS011;25203;50.754;6.978;2024-02-04T06:02:19;3.97;;;3.22;;
39524;SDS011;25203;50.754;6.978;2024-02-04T06:04:19;3.88;;;3.47;;
39524;SDS011;25203;50.754;6.978;2024-02-04T06:06:20;4.80;;;3.55;;
39524;SDS011;25203;50.754;6.978;2024-02-04T06:08:20;4.90;;;3.35;;
39524;SDS011;25203;50.754;6.978;2024-02-04T06:10:21;3.25;;;2.72;;
39524;SDS011;25203;50.754;6.978;2024-02-04T06:12:22;4.45;;;3.50;;
39524;SDS011;25203;50.754;6.978;2024-02-04T06:14:22;4.22;;;3.22;;
39524;SDS011;25203;50.754;6.978;2024-02-04T06:16:23;3.83;;;3.38;;
39524;SDS011;25203;50.754;6.978;2024-02-04T06:18:23;3.22;;;2.60;;
39524;SDS011;25203;50.754;6.978;2024-02-04T06:20:24;2.88;;;2.58;;
39524;SDS011;25203;50.754;6.978;2024-02-04T06:22:25;2.38;;;2.17;;
39524;SDS011;25203;50.754;6.978;2024-02-04T06:24:25;3.08;;;2.78;;
39524;SDS011;25203;50.754;6.978;2024-02-04T06:26:26;2.40;;;2.20;;
39524;SDS011;25203;50.754;6.978;2024-02-04T06:28:26;4.80;;;2.35;;
39524;SDS011;25203;50.754;6.978;2024-02-04T06:30:27;3.50;;;2.38;;
39524;SDS011;25203;50.754;6.978;2024-02-04T06:32:28;3.00;;;1.80;;
39524;SDS011;25203;50.754;6.978;2024-02-04T06:34:28;1.63;;;1.38;;
39524;SDS011;25203;50.754;6.978;2024-02-04T06:36:29;2.40;;;1.65;;
39524;SDS011;25203;50.754;6.978;2024-02-04T06:38:29;3.28;;;1.65;;
39524;SDS011;25203;50.754;6.978;2024-02-04T06:40:30;0.85;;;0.85;;
39524;SDS011;25203;50.754;6.978;2024-02-04T06:42:30;0.60;;;0.60;;
39524;SDS011;25203;50.754;6.978;2024-02-04T06:44:31;0.63;;;0.63;;
39524;SDS011;25203;50.754;6.978;2024-02-04T06:46:31;2.13;;;0.60;;
39524;SDS011;25203;50.754;6.978;2024-02-04T06:48:32;1.95;;;0.77;;
39524;SDS011;25203;50.754;6.978;2024-02-04T06:50:33;1.38;;;0.60;;
39524;SDS011;25203;50.754;6.978;2024-02-04T06:52:33;1.65;;;0.60;;
39524;SDS011;25203;50.754;6.978;2024-02-04T06:54:34;0.60;;;0.60;;
39524;SDS011;25203;50.754;6.978;2024-02-04T06:56:34;2.10;;;0.40;;
39524;SDS011;25203;50.754;6.978;2024-02-04T06:58:37;0.47;;;0.30;;
39524;SDS011;25203;50.754;6.978;2024-02-04T07:00:38;0.50;;;0.50;;
39524;SDS011;25203;50.754;6.978;2024-02-04T07:02:38;0.43;;;0.30;;
39524;SDS011;25203;50.754;6.978;2024-02-04T07:04:39;0.43;;;0.40;;
39524;SDS011;25203;50.754;6.978;2024-02-04T07:06:40;0.32;;;0.30;;
39524;SDS011;25203;50.754;6.978;2024-02-04T07:08:40;0.20;;;0.20;;
39524;SDS011;25203;50.754;6.978;2024-02-04T07:10:41;1.48;;;0.30;;
39524;SDS011;25203;50.754;6.978;2024-02-04T07:12:41;0.30;;;0.30;;
39524;SDS011;25203;50.754;6.978;2024-02-04T07:14:42;0.68;;;0.30;;
39524;SDS011;25203;50.754;6.978;2024-02-04T07:16:43;1.75;;;0.30;;
39524;SDS011;25203;50.754;6.978;2024-02-04T07:18:43;0.75;;;0.35;;
39524;SDS011;25203;50.754;6.978;2024-02-04T07:20:44;1.27;;;0.50;;
39524;SDS011;25203;50.754;6.978;2024-02-04T07:22:45;4.57;;;0.30;;
39524;SDS011;25203;50.754;6.978;2024-02-04T07:24:45;0.70;;;0.30;;
39524;SDS011;25203;50.754;6.978;2024-02-04T07:26:46;0.20;;;0.20;;
39524;SDS011;25203;50.754;6.978;2024-02-04T07:28:46;2.47;;;0.30;;
39524;SDS011;25203;50.754;6.978;2024-02-04T07:30:47;0.30;;;0.30;;
39524;SDS011;25203;50.754;6.978;2024-02-04T07:32:48;0.10;;;0.10;;
39524;SDS011;25203;50.754;6.978;2024-02-04T07:34:48;0.30;;;0.20;;
39524;SDS011;25203;50.754;6.978;2024-02-04T07:36:49;0.40;;;0.30;;
39524;SDS011;25203;50.754;6.978;2024-02-04T07:38:52;0.98;;;0.30;;
39524;SDS011;25203;50.754;6.978;2024-02-04T07:40:53;4.35;;;0.20;;
39524;SDS011;25203;50.754;6.978;2024-02-04T07:42:55;0.20;;;0.20;;
39524;SDS011;25203;50.754;6.978;2024-02-04T07:44:56;0.20;;;0.20;;
39524;SDS011;25203;50.754;6.978;2024-02-04T07:46:56;0.40;;;0.30;;
39524;SDS011;25203;50.754;6.978;2024-02-04T07:48:57;0.47;;;0.40;;
39524;SDS011;25203;50.754;6.978;2024-02-04T07:50:58;1.17;;;0.40;;
39524;SDS011;25203;50.754;6.978;2024-02-04T07:52:58;1.75;;;0.60;;
39524;SDS011;25203;50.754;6.978;2024-02-04T07:54:59;1.02;;;0.60;;
39524;SDS011;25203;50.754;6.978;2024-02-04T07:56:59;0.40;;;0.40;;
39524;SDS011;25203;50.754;6.978;2024-02-04T07:59:00;0.30;;;0.30;;
39524;SDS011;25203;50.754;6.978;2024-02-04T08:01:01;0.40;;;0.40;;
39524;SDS011;25203;50.754;6.978;2024-02-04T08:03:01;0.40;;;0.40;;
39524;SDS011;25203;50.754;6.978;2024-02-04T08:05:02;0.85;;;0.70;;
39524;SDS011;25203;50.754;6.978;2024-02-04T08:07:03;1.48;;;0.65;;
39524;SDS011;25203;50.754;6.978;2024-02-04T08:09:04;1.67;;;0.80;;
39524;SDS011;25203;50.754;6.978;2024-02-04T08:11:04;0.50;;;0.50;;
39524;SDS011;25203;50.754;6.978;2024-02-04T08:13:05;1.70;;;0.40;;
39524;SDS011;25203;50.754;6.978;2024-02-04T08:15:06;1.85;;;0.68;;
39524;SDS011;25203;50.754;6.978;2024-02-04T08:17:07;0.60;;;0.60;;
39524;SDS011;25203;50.754;6.978;2024-02-04T08:19:08;1.98;;;1.05;;
39524;SDS011;25203;50.754;6.978;2024-02-04T08:21:08;0.20;;;0.20;;
39524;SDS011;25203;50.754;6.978;2024-02-04T08:23:09;0.55;;;0.30;;
39524;SDS011;25203;50.754;6.978;2024-02-04T08:25:09;1.77;;;0.50;;
39524;SDS011;25203;50.754;6.978;2024-02-04T08:27:11;0.88;;;0.50;;
39524;SDS011;25203;50.754;6.978;2024-02-04T08:29:12;0.47;;;0.40;;
39524;SDS011;25203;50.754;6.978;2024-02-04T08:31:13;1.02;;;0.93;;
39524;SDS011;25203;50.754;6.978;2024-02-04T08:33:13;0.75;;;0.75;;
39524;SDS011;25203;50.754;6.978;2024-02-04T08:35:14;2.95;;;0.60;;
39524;SDS011;25203;50.754;6.978;2024-02-04T08:37:14;0.98;;;0.90;;
39524;SDS011;25203;50.754;6.978;2024-02-04T08:39:15;0.75;;;0.60;;
39524;SDS011;25203;50.754;6.978;2024-02-04T08:41:16;1.98;;;0.65;;
39524;SDS011;25203;50.754;6.978;2024-02-04T08:43:16;0.50;;;0.50;;
39524;SDS011;25203;50.754;6.978;2024-02-04T08:45:17;2.65;;;0.85;;
39524;SDS011;25203;50.754;6.978;2024-02-04T08:47:17;1.05;;;0.75;;
39524;SDS011;25203;50.754;6.978;2024-02-04T08:49:18;0.85;;;0.85;;
39524;SDS011;25203;50.754;6.978;2024-02-04T08:51:19;0.90;;;0.90;;
39524;SDS011;25203;50.754;6.978;2024-02-04T08:53:20;0.77;;;0.73;;
39524;SDS011;25203;50.754;6.978;2024-02-04T08:55:21;1.10;;;0.50;;
39524;SDS011;25203;50.754;6.978;2024-02-04T08:57:22;0.82;;;0.50;;
39524;SDS011;25203;50.754;6.978;2024-02-04T08:59:23;1.25;;;0.80;;
39524;SDS011;25203;50.754;6.978;2024-02-04T09:01:24;0.60;;;0.60;;
39524;SDS011;25203;50.754;6.978;2024-02-04T09:03:25;0.63;;;0.63;;
39524;SDS011;25203;50.754;6.978;2024-02-04T09:05:26;0.50;;;0.50;;
39524;SDS011;25203;50.754;6.978;2024-02-04T09:07:26;1.27;;;1.00;;
39524;SDS011;25203;50.754;6.978;2024-02-04T09:09:27;0.70;;;0.70;;
39524;SDS011;25203;50.754;6.978;2024-02-04T09:11:27;1.60;;;0.60;;
39524;SDS011;25203;50.754;6.978;2024-02-04T09:13:28;2.80;;;1.17;;
39524;SDS011;25203;50.754;6.978;2024-02-04T09:15:29;0.63;;;0.50;;
39524;SDS011;25203;50.754;6.978;2024-02-04T09:17:29;1.05;;;0.85;;
39524;SDS011;25203;50.754;6.978;2024-02-04T09:19:30;1.25;;;0.93;;
39524;SDS011;25203;50.754;6.978;2024-02-04T09:21:33;0.50;;;0.50;;
39524;SDS011;25203;50.754;6.978;2024-02-04T09:23:34;1.88;;;0.45;;
39524;SDS011;25203;50.754;6.978;2024-02-04T09:25:35;0.22;;;0.20;;
39524;SDS011;25203;50.754;6.978;2024-02-04T09:27:35;0.30;;;0.30;;
39524;SDS011;25203;50.754;6.978;2024-02-04T09:29:36;0.40;;;0.40;;
39524;SDS011;25203;50.754;6.978;2024-02-04T09:31:37;0.82;;;0.30;;
39524;SDS011;25203;50.754;6.978;2024-02-04T09:33:37;0.60;;;0.40;;
39524;SDS011;25203;50.754;6.978;2024-02-04T09:35:40;2.85;;;0.40;;
39524;SDS011;25203;50.754;6.978;2024-02-04T09:37:41;0.30;;;0.30;;
39524;SDS011;25203;50.754;6.978;2024-02-04T09:39:42;0.30;;;0.30;;
39524;SDS011;25203;50.754;6.978;2024-02-04T09:41:43;1.50;;;0.40;;
39524;SDS011;25203;50.754;6.978;2024-02-04T09:43:43;0.30;;;0.30;;
39524;SDS011;25203;50.754;6.978;2024-02-04T09:45:45;0.25;;;0.25;;
39524;SDS011;25203;50.754;6.978;2024-02-04T09:47:46;1.95;;;0.35;;
39524;SDS011;25203;50.754;6.978;2024-02-04T09:49:49;0.30;;;0.30;;
39524;SDS011;25203;50.754;6.978;2024-02-04T09:51:52;0.17;;;0.17;;
39524;SDS011;25203;50.754;6.978;2024-02-04T09:53:53;0.57;;;0.30;;
39524;SDS011;25203;50.754;6.978;2024-02-04T09:55:59;0.28;;;0.28;;
39524;SDS011;25203;50.754;6.978;2024-02-04T09:58:06;0.20;;;0.20;;
39524;SDS011;25203;50.754;6.978;2024-02-04T10:00:06;0.75;;;0.75;;
39524;SDS011;25203;50.754;6.978;2024-02-04T10:02:08;0.38;;;0.30;;
39524;SDS011;25203;50.754;6.978;2024-02-04T10:04:10;1.45;;;0.20;;
39524;SDS011;25203;50.754;6.978;2024-02-04T10:06:10;0.30;;;0.30;;
39524;SDS011;25203;50.754;6.978;2024-02-04T10:08:11;0.17;;;0.17;;
39524;SDS011;25203;50.754;6.978;2024-02-04T10:10:12;0.38;;;0.28;;
39524;SDS011;25203;50.754;6.978;2024-02-04T10:12:13;0.38;;;0.30;;
39524;SDS011;25203;50.754;6.978;2024-02-04T10:14:13;0.65;;;0.30;;
39524;SDS011;25203;50.754;6.978;2024-02-04T10:16:16;0.10;;;0.10;;
39524;SDS011;25203;50.754;6.978;2024-02-04T10:18:17;0.20;;;0.20;;
39524;SDS011;25203;50.754;6.978;2024-02-04T10:20:18;1.02;;;0.28;;
39524;SDS011;25203;50.754;6.978;2024-02-04T10:22:18;0.45;;;0.22;;
39524;SDS011;25203;50.754;6.978;2024-02-04T10:24:19;0.30;;;0.30;;
39524;SDS011;25203;50.754;6.978;2024-02-04T10:26:21;0.10;;;0.10;;
39524;SDS011;25203;50.754;6.978;2024-02-04T10:28:22;0.80;;;0.50;;
39524;SDS011;25203;50.754;6.978;2024-02-04T10:30:23;0.30;;;0.20;;
39524;SDS011;25203;50.754;6.978;2024-02-04T10:32:24;1.80;;;0.30;;
39524;SDS011;25203;50.754;6.978;2024-02-04T10:34:27;0.98;;;0.35;;
39524;SDS011;25203;50.754;6.978;2024-02-04T10:36:30;0.80;;;0.40;;
39524;SDS011;25203;50.754;6.978;2024-02-04T10:38:34;0.30;;;0.30;;
39524;SDS011;25203;50.754;6.978;2024-02-04T10:40:35;0.55;;;0.30;;
39524;SDS011;25203;50.754;6.978;2024-02-04T10:42:35;1.52;;;0.30;;
39524;SDS011;25203;50.754;6.978;2024-02-04T10:44:37;1.35;;;0.30;;
39524;SDS011;25203;50.754;6.978;2024-02-04T10:46:40;2.92;;;0.32;;
39524;SDS011;25203;50.754;6.978;2024-02-04T10:48:41;2.28;;;0.60;;
39524;SDS011;25203;50.754;6.978;2024-02-04T10:50:44;0.60;;;0.20;;
39524;SDS011;25203;50.754;6.978;2024-02-04T10:52:47;1.25;;;0.40;;
39524;SDS011;25203;50.754;6.978;2024-02-04T10:54:49;0.43;;;0.40;;
39524;SDS011;25203;50.754;6.978;2024-02-04T10:56:59;0.30;;;0.30;;
39524;SDS011;25203;50.754;6.978;2024-02-04T10:59:04;0.65;;;0.43;;
39524;SDS011;25203;50.754;6.978;2024-02-04T11:01:07;0.40;;;0.40;;
39524;SDS011;25203;50.754;6.978;2024-02-04T11:03:08;1.08;;;0.40;;
39524;SDS011;25203;50.754;6.978;2024-02-04T11:05:11;0.60;;;0.20;;
39524;SDS011;25203;50.754;6.978;2024-02-04T11:07:12;0.65;;;0.32;;
39524;SDS011;25203;50.754;6.978;2024-02-04T11:09:14;0.40;;;0.40;;
39524;SDS011;25203;50.754;6.978;2024-02-04T11:11:16;0.47;;;0.47;;
39524;SDS011;25203;50.754;6.978;2024-02-04T11:13:17;0.30;;;0.30;;
39524;SDS011;25203;50.754;6.978;2024-02-04T11:15:19;1.58;;;0.50;;
39524;SDS011;25203;50.754;6.978;2024-02-04T11:17:29;1.75;;;0.40;;
39524;SDS011;25203;50.754;6.978;2024-02-04T11:24:18;0.30;;;0.30;;
39524;SDS011;25203;50.754;6.978;2024-02-04T11:26:29;0.45;;;0.45;;
39524;SDS011;25203;50.754;6.978;2024-02-04T11:28:30;0.22;;;0.22;;
39524;SDS011;25203;50.754;6.978;2024-02-04T11:30:34;0.20;;;0.20;;
39524;SDS011;25203;50.754;6.978;2024-02-04T11:32:36;0.30;;;0.30;;
39524;SDS011;25203;50.754;6.978;2024-02-04T11:34:36;0.82;;;0.40;;
39524;SDS011;25203;50.754;6.978;2024-02-04T11:36:37;0.75;;;0.43;;
39524;SDS011;25203;50.754;6.978;2024-02-04T11:38:39;0.20;;;0.20;;
39524;SDS011;25203;50.754;6.978;2024-02-04T11:40:41;0.52;;;0.43;;
39524;SDS011;25203;50.754;6.978;2024-02-04T11:42:41;0.63;;;0.43;;
39524;SDS011;25203;50.754;6.978;2024-02-04T11:44:43;1.50;;;0.30;;
39524;SDS011;25203;50.754;6.978;2024-02-04T11:46:47;0.98;;;0.60;;
39524;SDS011;25203;50.754;6.978;2024-02-04T11:48:52;2.15;;;0.38;;
39524;SDS011;25203;50.754;6.978;2024-02-04T11:50:53;1.30;;;0.85;;
39524;SDS011;25203;50.754;6.978;2024-02-04T11:53:01;2.03;;;0.50;;
39524;SDS011;25203;50.754;6.978;2024-02-04T11:55:12;0.47;;;0.47;;
39524;SDS011;25203;50.754;6.978;2024-02-04T11:57:15;0.30;;;0.30;;
39524;SDS011;25203;50.754;6.978;2024-02-04T11:59:16;0.50;;;0.50;;
39524;SDS011;25203;50.754;6.978;2024-02-04T12:01:18;0.88;;;0.88;;
39524;SDS011;25203;50.754;6.978;2024-02-04T12:03:32;0.38;;;0.38;;
39524;SDS011;25203;50.754;6.978;2024-02-04T12:05:34;0.70;;;0.70;;
39524;SDS011;25203;50.754;6.978;2024-02-04T12:07:35;0.45;;;0.40;;
39524;SDS011;25203;50.754;6.978;2024-02-04T12:09:38;0.40;;;0.40;;
39524;SDS011;25203;50.754;6.978;2024-02-04T12:11:39;0.43;;;0.43;;
39524;SDS011;25203;50.754;6.978;2024-02-04T12:13:40;0.90;;;0.20;;
39524;SDS011;25203;50.754;6.978;2024-02-04T12:15:42;0.28;;;0.28;;
39524;SDS011;25203;50.754;6.978;2024-02-04T12:17:44;2.10;;;0.63;;
39524;SDS011;25203;50.754;6.978;2024-02-04T12:19:45;0.30;;;0.30;;